sensor_id;sensor_type;location;lat;lon;timestamp;temperature;humidity
28552;DHT22;15752;49.560;8.708;2022-12-10T00:01:48;6.60;99.80
28552;DHT22;15752;49.560;8.708;2022-12-10T00:04:17;6.60;99.90
28552;DHT22;15752;49.560;8.708;2022-12-10T00:06:47;6.60;99.80
28552;DHT22;15752;49.560;8.708;2022-12-10T00:09:19;6.60;99.90
28552;DHT22;15752;49.560;8.708;2022-12-10T00:11:48;6.60;99.90
28552;DHT22;15752;49.560;8.708;2022-12-10T00:14:17;6.90;99.90
28552;DHT22;15752;49.560;8.708;2022-12-10T00:16:45;6.60;99.90
28552;DHT22;15752;49.560;8.708;2022-12-10T00:19:14;6.70;99.90
28552;DHT22;15752;49.560;8.708;2022-12-10T00:21:43;6.80;99.90
28552;DHT22;15752;49.560;8.708;2022-12-10T00:24:12;6.70;99.90
28552;DHT22;15752;49.560;8.708;2022-12-10T00:26:42;6.70;99.80
28552;DHT22;15752;49.560;8.708;2022-12-10T00:29:12;6.70;99.70
28552;DHT22;15752;49.560;8.708;2022-12-10T00:31:41;6.90;99.80
28552;DHT22;15752;49.560;8.708;2022-12-10T00:34:11;6.80;99.80
28552;DHT22;15752;49.560;8.708;2022-12-10T00:36:42;6.60;99.80
28552;DHT22;15752;49.560;8.708;2022-12-10T00:39:15;6.90;99.90
28552;DHT22;15752;49.560;8.708;2022-12-10T00:41:46;6.90;99.90
28552;DHT22;15752;49.560;8.708;2022-12-10T00:44:16;6.70;99.90
28552;DHT22;15752;49.560;8.708;2022-12-10T00:46:45;6.70;99.80
28552;DHT22;15752;49.560;8.708;2022-12-10T00:49:14;6.70;99.70
28552;DHT22;15752;49.560;8.708;2022-12-10T00:51:42;6.70;99.70
28552;DHT22;15752;49.560;8.708;2022-12-10T00:54:11;6.90;99.80
28552;DHT22;15752;49.560;8.708;2022-12-10T00:56:39;6.80;99.60
28552;DHT22;15752;49.560;8.708;2022-12-10T00:59:09;6.70;99.80
28552;DHT22;15752;49.560;8.708;2022-12-10T01:01:39;6.60;99.60
28552;DHT22;15752;49.560;8.708;2022-12-10T01:04:11;6.90;99.90
28552;DHT22;15752;49.560;8.708;2022-12-10T01:06:43;6.60;99.80
28552;DHT22;15752;49.560;8.708;2022-12-10T01:09:14;6.60;99.90
28552;DHT22;15752;49.560;8.708;2022-12-10T01:11:45;6.60;99.90
28552;DHT22;15752;49.560;8.708;2022-12-10T01:14:17;6.60;99.90
28552;DHT22;15752;49.560;8.708;2022-12-10T01:16:48;6.80;99.90
28552;DHT22;15752;49.560;8.708;2022-12-10T01:19:16;6.60;99.90
28552;DHT22;15752;49.560;8.708;2022-12-10T01:21:45;7.00;99.80
28552;DHT22;15752;49.560;8.708;2022-12-10T01:24:13;6.70;99.90
28552;DHT22;15752;49.560;8.708;2022-12-10T01:26:43;6.60;99.80
28552;DHT22;15752;49.560;8.708;2022-12-10T01:29:12;6.90;99.90
28552;DHT22;15752;49.560;8.708;2022-12-10T01:31:42;6.70;99.80
28552;DHT22;15752;49.560;8.708;2022-12-10T01:34:13;6.60;99.90
28552;DHT22;15752;49.560;8.708;2022-12-10T01:36:43;6.60;99.80
28552;DHT22;15752;49.560;8.708;2022-12-10T01:39:14;6.70;99.90
28552;DHT22;15752;49.560;8.708;2022-12-10T01:41:45;6.60;99.90
28552;DHT22;15752;49.560;8.708;2022-12-10T01:45:01;6.60;99.90
28552;DHT22;15752;49.560;8.708;2022-12-10T01:47:34;6.60;99.90
28552;DHT22;15752;49.560;8.708;2022-12-10T01:50:04;6.80;99.90
28552;DHT22;15752;49.560;8.708;2022-12-10T01:52:37;6.60;99.90
28552;DHT22;15752;49.560;8.708;2022-12-10T01:58:19;6.60;99.90
28552;DHT22;15752;49.560;8.708;2022-12-10T02:01:03;6.60;99.80
28552;DHT22;15752;49.560;8.708;2022-12-10T02:03:44;6.60;99.80
28552;DHT22;15752;49.560;8.708;2022-12-10T02:06:29;6.60;99.90
28552;DHT22;15752;49.560;8.708;2022-12-10T02:09:10;6.90;99.90
28552;DHT22;15752;49.560;8.708;2022-12-10T02:11:45;6.60;99.80
28552;DHT22;15752;49.560;8.708;2022-12-10T02:14:19;6.70;99.90
28552;DHT22;15752;49.560;8.708;2022-12-10T02:16:54;6.60;99.80
28552;DHT22;15752;49.560;8.708;2022-12-10T02:19:38;6.60;99.90
28552;DHT22;15752;49.560;8.708;2022-12-10T02:22:14;6.60;99.90
28552;DHT22;15752;49.560;8.708;2022-12-10T02:24:44;6.60;99.80
28552;DHT22;15752;49.560;8.708;2022-12-10T02:27:22;6.60;99.90
28552;DHT22;15752;49.560;8.708;2022-12-10T02:29:55;6.90;99.90
28552;DHT22;15752;49.560;8.708;2022-12-10T02:32:31;6.90;99.90
28552;DHT22;15752;49.560;8.708;2022-12-10T02:35:05;6.60;99.90
28552;DHT22;15752;49.560;8.708;2022-12-10T02:37:48;6.60;99.80
28552;DHT22;15752;49.560;8.708;2022-12-10T02:40:23;6.90;99.90
28552;DHT22;15752;49.560;8.708;2022-12-10T02:42:54;6.60;99.90
28552;DHT22;15752;49.560;8.708;2022-12-10T02:45:27;6.90;99.80
28552;DHT22;15752;49.560;8.708;2022-12-10T02:47:59;6.90;99.80
28552;DHT22;15752;49.560;8.708;2022-12-10T02:50:34;6.20;99.70
28552;DHT22;15752;49.560;8.708;2022-12-10T02:53:03;6.50;99.50
28552;DHT22;15752;49.560;8.708;2022-12-10T02:55:42;6.50;99.70
28552;DHT22;15752;49.560;8.708;2022-12-10T02:58:28;6.50;99.80
28552;DHT22;15752;49.560;8.708;2022-12-10T03:01:07;6.50;99.70
28552;DHT22;15752;49.560;8.708;2022-12-10T03:03:44;6.80;99.80
28552;DHT22;15752;49.560;8.708;2022-12-10T03:06:20;6.80;99.90
28552;DHT22;15752;49.560;8.708;2022-12-10T03:08:58;6.40;99.80
28552;DHT22;15752;49.560;8.708;2022-12-10T03:11:28;6.40;99.80
28552;DHT22;15752;49.560;8.708;2022-12-10T03:13:59;6.40;99.70
28552;DHT22;15752;49.560;8.708;2022-12-10T03:16:34;6.40;99.80
28552;DHT22;15752;49.560;8.708;2022-12-10T03:19:16;6.70;99.80
28552;DHT22;15752;49.560;8.708;2022-12-10T03:21:48;6.50;99.70
28552;DHT22;15752;49.560;8.708;2022-12-10T03:24:17;6.50;99.70
28552;DHT22;15752;49.560;8.708;2022-12-10T03:26:48;6.40;99.80
28552;DHT22;15752;49.560;8.708;2022-12-10T03:29:21;6.60;99.90
28552;DHT22;15752;49.560;8.708;2022-12-10T03:31:53;6.30;99.70
28552;DHT22;15752;49.560;8.708;2022-12-10T03:34:22;6.30;99.80
28552;DHT22;15752;49.560;8.708;2022-12-10T03:36:51;6.30;99.80
28552;DHT22;15752;49.560;8.708;2022-12-10T03:39:21;6.30;99.80
28552;DHT22;15752;49.560;8.708;2022-12-10T03:41:50;6.50;99.90
28552;DHT22;15752;49.560;8.708;2022-12-10T03:44:28;6.30;99.60
28552;DHT22;15752;49.560;8.708;2022-12-10T03:46:59;6.30;99.80
28552;DHT22;15752;49.560;8.708;2022-12-10T03:49:27;6.30;99.90
28552;DHT22;15752;49.560;8.708;2022-12-10T03:51:56;6.30;99.60
28552;DHT22;15752;49.560;8.708;2022-12-10T03:54:24;6.30;99.70
28552;DHT22;15752;49.560;8.708;2022-12-10T03:56:53;6.30;99.80
28552;DHT22;15752;49.560;8.708;2022-12-10T03:59:21;6.30;99.70
28552;DHT22;15752;49.560;8.708;2022-12-10T04:01:50;6.30;99.60
28552;DHT22;15752;49.560;8.708;2022-12-10T04:04:20;6.30;99.60
28552;DHT22;15752;49.560;8.708;2022-12-10T04:06:48;6.30;99.70
28552;DHT22;15752;49.560;8.708;2022-12-10T04:09:17;6.30;99.70
28552;DHT22;15752;49.560;8.708;2022-12-10T04:11:46;6.30;99.60
28552;DHT22;15752;49.560;8.708;2022-12-10T04:14:14;6.60;99.80
28552;DHT22;15752;49.560;8.708;2022-12-10T04:17:00;6.40;99.80
28552;DHT22;15752;49.560;8.708;2022-12-10T04:19:30;6.40;99.80
28552;DHT22;15752;49.560;8.708;2022-12-10T04:21:58;6.30;99.50
28552;DHT22;15752;49.560;8.708;2022-12-10T04:24:44;6.30;99.50
28552;DHT22;15752;49.560;8.708;2022-12-10T04:27:31;6.50;99.80
28552;DHT22;15752;49.560;8.708;2022-12-10T04:30:00;6.20;99.60
28552;DHT22;15752;49.560;8.708;2022-12-10T04:32:29;6.60;99.50
28552;DHT22;15752;49.560;8.708;2022-12-10T04:34:59;6.20;99.60
28552;DHT22;15752;49.560;8.708;2022-12-10T04:37:28;6.50;99.80
28552;DHT22;15752;49.560;8.708;2022-12-10T04:39:57;6.20;99.60
28552;DHT22;15752;49.560;8.708;2022-12-10T04:42:25;6.20;99.50
28552;DHT22;15752;49.560;8.708;2022-12-10T04:44:53;6.10;99.60
28552;DHT22;15752;49.560;8.708;2022-12-10T04:47:22;6.30;99.60
28552;DHT22;15752;49.560;8.708;2022-12-10T04:49:51;6.40;99.70
28552;DHT22;15752;49.560;8.708;2022-12-10T04:52:20;6.10;99.50
28552;DHT22;15752;49.560;8.708;2022-12-10T04:54:49;6.10;99.40
28552;DHT22;15752;49.560;8.708;2022-12-10T04:57:17;6.10;99.60
28552;DHT22;15752;49.560;8.708;2022-12-10T04:59:45;6.40;99.40
28552;DHT22;15752;49.560;8.708;2022-12-10T05:02:14;6.40;99.50
28552;DHT22;15752;49.560;8.708;2022-12-10T05:04:42;6.10;99.70
28552;DHT22;15752;49.560;8.708;2022-12-10T05:07:11;6.10;99.80
28552;DHT22;15752;49.560;8.708;2022-12-10T05:09:41;6.40;99.70
28552;DHT22;15752;49.560;8.708;2022-12-10T05:12:09;6.40;99.70
28552;DHT22;15752;49.560;8.708;2022-12-10T05:14:38;6.50;99.80
28552;DHT22;15752;49.560;8.708;2022-12-10T05:17:06;6.30;99.50
28552;DHT22;15752;49.560;8.708;2022-12-10T05:19:35;6.40;99.40
28552;DHT22;15752;49.560;8.708;2022-12-10T05:22:03;6.20;99.90
28552;DHT22;15752;49.560;8.708;2022-12-10T05:24:50;6.40;99.60
28552;DHT22;15752;49.560;8.708;2022-12-10T05:27:19;6.20;99.50
28552;DHT22;15752;49.560;8.708;2022-12-10T05:29:47;6.10;99.50
28552;DHT22;15752;49.560;8.708;2022-12-10T05:32:16;6.40;99.60
28552;DHT22;15752;49.560;8.708;2022-12-10T05:34:44;6.10;99.70
28552;DHT22;15752;49.560;8.708;2022-12-10T05:37:12;6.10;99.50
28552;DHT22;15752;49.560;8.708;2022-12-10T05:39:41;6.30;99.60
28552;DHT22;15752;49.560;8.708;2022-12-10T05:42:11;6.10;99.50
28552;DHT22;15752;49.560;8.708;2022-12-10T05:44:39;6.30;99.40
28552;DHT22;15752;49.560;8.708;2022-12-10T05:47:08;6.30;99.70
28552;DHT22;15752;49.560;8.708;2022-12-10T05:49:36;6.30;99.70
28552;DHT22;15752;49.560;8.708;2022-12-10T05:52:12;6.10;99.80
28552;DHT22;15752;49.560;8.708;2022-12-10T05:54:40;6.10;99.50
28552;DHT22;15752;49.560;8.708;2022-12-10T05:57:10;6.10;99.50
28552;DHT22;15752;49.560;8.708;2022-12-10T05:59:39;6.30;99.80
28552;DHT22;15752;49.560;8.708;2022-12-10T06:02:07;6.10;99.70
28552;DHT22;15752;49.560;8.708;2022-12-10T06:04:36;6.10;99.70
28552;DHT22;15752;49.560;8.708;2022-12-10T06:07:04;6.10;99.60
28552;DHT22;15752;49.560;8.708;2022-12-10T06:09:37;6.10;99.70
28552;DHT22;15752;49.560;8.708;2022-12-10T06:12:06;6.20;99.50
28552;DHT22;15752;49.560;8.708;2022-12-10T06:14:36;6.10;99.60
28552;DHT22;15752;49.560;8.708;2022-12-10T06:17:04;6.10;99.50
28552;DHT22;15752;49.560;8.708;2022-12-10T06:19:33;6.10;99.40
28552;DHT22;15752;49.560;8.708;2022-12-10T06:22:01;6.10;99.30
28552;DHT22;15752;49.560;8.708;2022-12-10T06:24:30;6.10;99.60
28552;DHT22;15752;49.560;8.708;2022-12-10T06:26:58;6.10;99.60
28552;DHT22;15752;49.560;8.708;2022-12-10T06:29:26;6.30;99.60
28552;DHT22;15752;49.560;8.708;2022-12-10T06:31:56;6.10;99.50
28552;DHT22;15752;49.560;8.708;2022-12-10T06:34:25;6.10;99.60
28552;DHT22;15752;49.560;8.708;2022-12-10T06:36:53;6.30;99.60
28552;DHT22;15752;49.560;8.708;2022-12-10T06:39:23;6.10;99.60
28552;DHT22;15752;49.560;8.708;2022-12-10T06:41:51;6.10;99.60
28552;DHT22;15752;49.560;8.708;2022-12-10T06:44:25;6.30;99.60
28552;DHT22;15752;49.560;8.708;2022-12-10T06:46:53;6.30;99.40
28552;DHT22;15752;49.560;8.708;2022-12-10T06:49:23;6.20;99.50
28552;DHT22;15752;49.560;8.708;2022-12-10T06:51:51;6.10;99.60
28552;DHT22;15752;49.560;8.708;2022-12-10T06:54:20;6.00;99.50
28552;DHT22;15752;49.560;8.708;2022-12-10T06:56:48;6.00;99.40
28552;DHT22;15752;49.560;8.708;2022-12-10T06:59:16;6.10;99.90
28552;DHT22;15752;49.560;8.708;2022-12-10T07:01:47;6.10;99.60
28552;DHT22;15752;49.560;8.708;2022-12-10T07:04:16;6.10;99.50
28552;DHT22;15752;49.560;8.708;2022-12-10T07:06:46;6.00;99.50
28552;DHT22;15752;49.560;8.708;2022-12-10T07:09:14;6.10;99.20
28552;DHT22;15752;49.560;8.708;2022-12-10T07:11:43;6.00;99.50
28552;DHT22;15752;49.560;8.708;2022-12-10T07:14:14;6.00;99.40
28552;DHT22;15752;49.560;8.708;2022-12-10T07:16:43;5.90;99.60
28552;DHT22;15752;49.560;8.708;2022-12-10T07:19:12;6.00;99.50
28552;DHT22;15752;49.560;8.708;2022-12-10T07:21:41;6.00;99.50
28552;DHT22;15752;49.560;8.708;2022-12-10T07:24:15;5.90;99.60
28552;DHT22;15752;49.560;8.708;2022-12-10T07:26:46;6.10;99.70
28552;DHT22;15752;49.560;8.708;2022-12-10T07:29:16;5.90;99.30
28552;DHT22;15752;49.560;8.708;2022-12-10T07:31:46;5.90;99.50
28552;DHT22;15752;49.560;8.708;2022-12-10T07:34:16;5.90;99.50
28552;DHT22;15752;49.560;8.708;2022-12-10T07:36:45;5.90;99.40
28552;DHT22;15752;49.560;8.708;2022-12-10T07:39:14;5.90;99.40
28552;DHT22;15752;49.560;8.708;2022-12-10T07:41:46;5.90;99.50
28552;DHT22;15752;49.560;8.708;2022-12-10T07:44:17;5.90;99.60
28552;DHT22;15752;49.560;8.708;2022-12-10T07:46:48;5.80;99.50
28552;DHT22;15752;49.560;8.708;2022-12-10T07:49:18;5.80;99.50
28552;DHT22;15752;49.560;8.708;2022-12-10T07:51:48;6.00;99.40
28552;DHT22;15752;49.560;8.708;2022-12-10T07:54:19;5.80;99.30
28552;DHT22;15752;49.560;8.708;2022-12-10T07:56:48;5.80;99.10
28552;DHT22;15752;49.560;8.708;2022-12-10T07:59:17;5.80;99.40
28552;DHT22;15752;49.560;8.708;2022-12-10T08:01:45;5.90;99.40
28552;DHT22;15752;49.560;8.708;2022-12-10T08:04:14;5.80;99.40
28552;DHT22;15752;49.560;8.708;2022-12-10T08:06:43;5.80;99.30
28552;DHT22;15752;49.560;8.708;2022-12-10T08:09:11;5.70;99.40
28552;DHT22;15752;49.560;8.708;2022-12-10T08:11:41;5.70;99.30
28552;DHT22;15752;49.560;8.708;2022-12-10T08:14:09;5.70;99.40
28552;DHT22;15752;49.560;8.708;2022-12-10T08:16:38;5.70;99.30
28552;DHT22;15752;49.560;8.708;2022-12-10T08:19:06;5.70;99.20
28552;DHT22;15752;49.560;8.708;2022-12-10T08:21:36;5.90;99.50
28552;DHT22;15752;49.560;8.708;2022-12-10T08:24:05;5.70;99.40
28552;DHT22;15752;49.560;8.708;2022-12-10T08:26:34;5.70;99.60
28552;DHT22;15752;49.560;8.708;2022-12-10T08:29:04;5.70;99.60
28552;DHT22;15752;49.560;8.708;2022-12-10T08:31:32;5.70;99.50
28552;DHT22;15752;49.560;8.708;2022-12-10T08:34:04;5.70;99.30
28552;DHT22;15752;49.560;8.708;2022-12-10T08:36:33;5.70;99.60
28552;DHT22;15752;49.560;8.708;2022-12-10T08:39:01;5.90;99.60
28552;DHT22;15752;49.560;8.708;2022-12-10T08:41:30;5.90;99.70
28552;DHT22;15752;49.560;8.708;2022-12-10T08:43:58;5.70;99.50
28552;DHT22;15752;49.560;8.708;2022-12-10T08:46:28;5.70;99.60
28552;DHT22;15752;49.560;8.708;2022-12-10T08:48:57;5.70;99.50
28552;DHT22;15752;49.560;8.708;2022-12-10T08:51:26;5.70;99.60
28552;DHT22;15752;49.560;8.708;2022-12-10T08:53:55;5.70;99.60
28552;DHT22;15752;49.560;8.708;2022-12-10T08:56:23;5.80;99.70
28552;DHT22;15752;49.560;8.708;2022-12-10T08:58:52;5.80;99.70
28552;DHT22;15752;49.560;8.708;2022-12-10T09:01:20;5.70;99.70
28552;DHT22;15752;49.560;8.708;2022-12-10T09:03:51;5.70;99.40
28552;DHT22;15752;49.560;8.708;2022-12-10T09:06:31;5.90;99.50
28552;DHT22;15752;49.560;8.708;2022-12-10T09:09:00;5.70;99.40
28552;DHT22;15752;49.560;8.708;2022-12-10T09:11:30;5.70;99.60
28552;DHT22;15752;49.560;8.708;2022-12-10T09:14:00;5.90;99.70
28552;DHT22;15752;49.560;8.708;2022-12-10T09:16:30;5.70;99.60
28552;DHT22;15752;49.560;8.708;2022-12-10T09:19:01;5.90;99.60
28552;DHT22;15752;49.560;8.708;2022-12-10T09:21:30;5.80;99.50
28552;DHT22;15752;49.560;8.708;2022-12-10T09:23:59;5.80;99.50
28552;DHT22;15752;49.560;8.708;2022-12-10T09:26:28;5.80;99.50
28552;DHT22;15752;49.560;8.708;2022-12-10T09:28:56;5.80;99.60
28552;DHT22;15752;49.560;8.708;2022-12-10T09:31:27;5.90;99.50
28552;DHT22;15752;49.560;8.708;2022-12-10T09:33:56;5.80;99.60
28552;DHT22;15752;49.560;8.708;2022-12-10T09:36:27;5.90;99.60
28552;DHT22;15752;49.560;8.708;2022-12-10T09:39:00;6.00;99.50
28552;DHT22;15752;49.560;8.708;2022-12-10T09:41:39;5.90;99.70
28552;DHT22;15752;49.560;8.708;2022-12-10T09:44:37;5.90;99.70
28552;DHT22;15752;49.560;8.708;2022-12-10T09:47:15;5.90;99.80
28552;DHT22;15752;49.560;8.708;2022-12-10T09:49:53;5.90;99.60
28552;DHT22;15752;49.560;8.708;2022-12-10T09:52:34;5.90;99.40
28552;DHT22;15752;49.560;8.708;2022-12-10T09:55:10;6.00;99.50
28552;DHT22;15752;49.560;8.708;2022-12-10T09:57:44;5.90;99.50
28552;DHT22;15752;49.560;8.708;2022-12-10T10:00:21;5.90;99.80
28552;DHT22;15752;49.560;8.708;2022-12-10T10:02:51;5.90;99.50
28552;DHT22;15752;49.560;8.708;2022-12-10T10:05:25;5.90;99.50
28552;DHT22;15752;49.560;8.708;2022-12-10T10:07:59;5.90;99.40
28552;DHT22;15752;49.560;8.708;2022-12-10T10:10:31;6.10;99.60
28552;DHT22;15752;49.560;8.708;2022-12-10T10:13:12;6.10;99.90
28552;DHT22;15752;49.560;8.708;2022-12-10T10:15:45;5.90;99.50
28552;DHT22;15752;49.560;8.708;2022-12-10T10:18:17;5.90;99.20
28552;DHT22;15752;49.560;8.708;2022-12-10T10:20:51;5.90;99.40
28552;DHT22;15752;49.560;8.708;2022-12-10T10:23:21;5.90;99.40
28552;DHT22;15752;49.560;8.708;2022-12-10T10:25:49;6.10;99.40
28552;DHT22;15752;49.560;8.708;2022-12-10T10:28:19;6.00;99.60
28552;DHT22;15752;49.560;8.708;2022-12-10T10:30:51;5.90;99.40
28552;DHT22;15752;49.560;8.708;2022-12-10T10:33:20;6.00;99.60
28552;DHT22;15752;49.560;8.708;2022-12-10T10:35:52;6.00;99.40
28552;DHT22;15752;49.560;8.708;2022-12-10T10:38:28;6.00;99.60
28552;DHT22;15752;49.560;8.708;2022-12-10T10:41:00;6.20;99.60
28552;DHT22;15752;49.560;8.708;2022-12-10T10:43:32;6.00;99.50
28552;DHT22;15752;49.560;8.708;2022-12-10T10:46:04;6.20;99.60
28552;DHT22;15752;49.560;8.708;2022-12-10T10:48:35;6.10;99.50
28552;DHT22;15752;49.560;8.708;2022-12-10T10:51:07;6.10;99.40
28552;DHT22;15752;49.560;8.708;2022-12-10T10:53:45;6.10;99.40
28552;DHT22;15752;49.560;8.708;2022-12-10T10:56:16;6.10;99.30
28552;DHT22;15752;49.560;8.708;2022-12-10T10:58:52;6.20;99.30
28552;DHT22;15752;49.560;8.708;2022-12-10T11:01:24;6.20;99.10
28552;DHT22;15752;49.560;8.708;2022-12-10T11:03:56;6.20;99.00
28552;DHT22;15752;49.560;8.708;2022-12-10T11:06:26;6.30;98.80
28552;DHT22;15752;49.560;8.708;2022-12-10T11:08:57;6.20;98.70
28552;DHT22;15752;49.560;8.708;2022-12-10T11:11:33;6.40;98.90
28552;DHT22;15752;49.560;8.708;2022-12-10T11:14:22;6.20;98.80
28552;DHT22;15752;49.560;8.708;2022-12-10T11:17:00;6.20;98.90
28552;DHT22;15752;49.560;8.708;2022-12-10T11:19:31;6.20;98.90
28552;DHT22;15752;49.560;8.708;2022-12-10T11:22:16;6.20;98.90
28552;DHT22;15752;49.560;8.708;2022-12-10T11:24:49;6.20;98.60
28552;DHT22;15752;49.560;8.708;2022-12-10T11:27:41;6.30;98.60
28552;DHT22;15752;49.560;8.708;2022-12-10T11:30:19;6.30;98.90
28552;DHT22;15752;49.560;8.708;2022-12-10T11:33:02;6.30;99.10
28552;DHT22;15752;49.560;8.708;2022-12-10T11:35:50;6.40;99.00
28552;DHT22;15752;49.560;8.708;2022-12-10T11:38:28;6.30;99.00
28552;DHT22;15752;49.560;8.708;2022-12-10T11:41:06;6.40;98.90
28552;DHT22;15752;49.560;8.708;2022-12-10T11:43:47;6.40;98.80
28552;DHT22;15752;49.560;8.708;2022-12-10T11:46:33;6.50;98.80
28552;DHT22;15752;49.560;8.708;2022-12-10T11:49:19;6.30;98.80
28552;DHT22;15752;49.560;8.708;2022-12-10T11:51:57;6.30;98.80
28552;DHT22;15752;49.560;8.708;2022-12-10T11:54:44;6.40;98.90
28552;DHT22;15752;49.560;8.708;2022-12-10T11:57:39;6.40;98.90
28552;DHT22;15752;49.560;8.708;2022-12-10T12:00:19;6.40;98.90
28552;DHT22;15752;49.560;8.708;2022-12-10T12:03:06;6.50;98.90
28552;DHT22;15752;49.560;8.708;2022-12-10T12:05:52;6.40;99.20
28552;DHT22;15752;49.560;8.708;2022-12-10T12:08:42;6.40;98.90
28552;DHT22;15752;49.560;8.708;2022-12-10T12:11:29;6.50;99.00
28552;DHT22;15752;49.560;8.708;2022-12-10T12:14:11;6.40;99.30
28552;DHT22;15752;49.560;8.708;2022-12-10T12:16:46;6.50;99.00
28552;DHT22;15752;49.560;8.708;2022-12-10T12:19:19;6.50;99.10
28552;DHT22;15752;49.560;8.708;2022-12-10T12:21:51;6.50;99.10
28552;DHT22;15752;49.560;8.708;2022-12-10T12:24:21;6.50;98.90
28552;DHT22;15752;49.560;8.708;2022-12-10T12:26:57;6.50;99.20
28552;DHT22;15752;49.560;8.708;2022-12-10T12:29:34;6.60;99.20
28552;DHT22;15752;49.560;8.708;2022-12-10T12:32:10;6.60;99.10
28552;DHT22;15752;49.560;8.708;2022-12-10T12:34:46;6.60;99.10
28552;DHT22;15752;49.560;8.708;2022-12-10T12:37:32;6.60;99.10
28552;DHT22;15752;49.560;8.708;2022-12-10T12:40:12;6.70;99.10
28552;DHT22;15752;49.560;8.708;2022-12-10T12:42:46;6.60;99.00
28552;DHT22;15752;49.560;8.708;2022-12-10T12:45:21;6.60;99.10
28552;DHT22;15752;49.560;8.708;2022-12-10T12:48:00;6.60;99.00
28552;DHT22;15752;49.560;8.708;2022-12-10T12:50:42;6.70;98.90
28552;DHT22;15752;49.560;8.708;2022-12-10T12:53:13;6.70;98.90
28552;DHT22;15752;49.560;8.708;2022-12-10T12:55:49;6.70;99.00
28552;DHT22;15752;49.560;8.708;2022-12-10T12:58:30;6.70;98.80
28552;DHT22;15752;49.560;8.708;2022-12-10T13:01:12;6.70;99.00
28552;DHT22;15752;49.560;8.708;2022-12-10T13:03:45;6.70;98.80
28552;DHT22;15752;49.560;8.708;2022-12-10T13:06:20;6.70;98.80
28552;DHT22;15752;49.560;8.708;2022-12-10T13:08:57;6.70;98.90
28552;DHT22;15752;49.560;8.708;2022-12-10T13:11:32;6.70;98.90
28552;DHT22;15752;49.560;8.708;2022-12-10T13:14:11;6.70;98.80
28552;DHT22;15752;49.560;8.708;2022-12-10T13:16:49;6.80;99.00
28552;DHT22;15752;49.560;8.708;2022-12-10T13:19:30;6.70;98.90
28552;DHT22;15752;49.560;8.708;2022-12-10T13:22:02;6.70;98.80
28552;DHT22;15752;49.560;8.708;2022-12-10T13:25:10;6.80;98.70
28552;DHT22;15752;49.560;8.708;2022-12-10T13:27:41;6.70;98.90
28552;DHT22;15752;49.560;8.708;2022-12-10T13:30:30;6.90;98.90
28552;DHT22;15752;49.560;8.708;2022-12-10T13:33:15;6.70;98.90
28552;DHT22;15752;49.560;8.708;2022-12-10T13:35:55;6.70;98.80
28552;DHT22;15752;49.560;8.708;2022-12-10T13:38:39;6.70;98.90
28552;DHT22;15752;49.560;8.708;2022-12-10T13:41:10;6.70;98.70
28552;DHT22;15752;49.560;8.708;2022-12-10T13:43:57;6.80;98.90
28552;DHT22;15752;49.560;8.708;2022-12-10T13:47:04;6.70;99.00
28552;DHT22;15752;49.560;8.708;2022-12-10T13:49:47;6.90;99.10
28552;DHT22;15752;49.560;8.708;2022-12-10T13:52:23;6.80;98.60
28552;DHT22;15752;49.560;8.708;2022-12-10T13:55:19;6.70;98.90
28552;DHT22;15752;49.560;8.708;2022-12-10T13:58:08;6.80;98.90
28552;DHT22;15752;49.560;8.708;2022-12-10T14:00:55;6.90;99.00
28552;DHT22;15752;49.560;8.708;2022-12-10T14:04:05;6.80;98.80
28552;DHT22;15752;49.560;8.708;2022-12-10T14:06:44;6.80;98.60
28552;DHT22;15752;49.560;8.708;2022-12-10T14:09:16;6.90;98.90
28552;DHT22;15752;49.560;8.708;2022-12-10T14:11:51;6.80;98.80
28552;DHT22;15752;49.560;8.708;2022-12-10T14:14:25;6.90;98.90
28552;DHT22;15752;49.560;8.708;2022-12-10T14:17:00;6.80;98.90
28552;DHT22;15752;49.560;8.708;2022-12-10T14:19:33;6.80;98.80
28552;DHT22;15752;49.560;8.708;2022-12-10T14:22:06;6.80;98.60
28552;DHT22;15752;49.560;8.708;2022-12-10T14:24:36;6.90;98.80
28552;DHT22;15752;49.560;8.708;2022-12-10T14:27:12;6.80;99.10
28552;DHT22;15752;49.560;8.708;2022-12-10T14:29:45;6.90;98.80
28552;DHT22;15752;49.560;8.708;2022-12-10T14:32:16;6.90;98.70
28552;DHT22;15752;49.560;8.708;2022-12-10T14:34:50;6.90;98.90
28552;DHT22;15752;49.560;8.708;2022-12-10T14:37:24;6.90;98.80
28552;DHT22;15752;49.560;8.708;2022-12-10T14:39:54;7.00;98.60
28552;DHT22;15752;49.560;8.708;2022-12-10T14:42:23;7.00;98.70
28552;DHT22;15752;49.560;8.708;2022-12-10T14:44:57;6.90;98.70
28552;DHT22;15752;49.560;8.708;2022-12-10T14:47:26;6.90;98.60
28552;DHT22;15752;49.560;8.708;2022-12-10T14:50:00;7.00;98.50
28552;DHT22;15752;49.560;8.708;2022-12-10T14:52:33;7.00;98.60
28552;DHT22;15752;49.560;8.708;2022-12-10T14:55:12;6.90;98.70
28552;DHT22;15752;49.560;8.708;2022-12-10T14:57:43;6.80;98.60
28552;DHT22;15752;49.560;8.708;2022-12-10T15:00:16;6.90;98.70
28552;DHT22;15752;49.560;8.708;2022-12-10T15:02:48;6.90;98.50
28552;DHT22;15752;49.560;8.708;2022-12-10T15:05:23;6.80;98.50
28552;DHT22;15752;49.560;8.708;2022-12-10T15:07:55;6.80;98.50
28552;DHT22;15752;49.560;8.708;2022-12-10T15:10:27;6.80;98.50
28552;DHT22;15752;49.560;8.708;2022-12-10T15:12:57;6.80;98.60
28552;DHT22;15752;49.560;8.708;2022-12-10T15:15:29;6.80;98.70
28552;DHT22;15752;49.560;8.708;2022-12-10T15:18:08;6.80;98.70
28552;DHT22;15752;49.560;8.708;2022-12-10T15:20:44;6.80;98.70
28552;DHT22;15752;49.560;8.708;2022-12-10T15:23:19;6.80;98.70
28552;DHT22;15752;49.560;8.708;2022-12-10T15:25:51;6.90;98.80
28552;DHT22;15752;49.560;8.708;2022-12-10T15:28:27;6.90;98.80
28552;DHT22;15752;49.560;8.708;2022-12-10T15:30:57;6.80;98.90
28552;DHT22;15752;49.560;8.708;2022-12-10T15:33:33;6.80;98.90
28552;DHT22;15752;49.560;8.708;2022-12-10T15:36:05;7.00;99.00
28552;DHT22;15752;49.560;8.708;2022-12-10T15:38:40;6.90;98.80
28552;DHT22;15752;49.560;8.708;2022-12-10T15:41:32;6.80;98.50
28552;DHT22;15752;49.560;8.708;2022-12-10T15:44:17;6.80;98.40
28552;DHT22;15752;49.560;8.708;2022-12-10T15:46:48;6.80;98.40
28552;DHT22;15752;49.560;8.708;2022-12-10T15:49:17;6.80;98.60
28552;DHT22;15752;49.560;8.708;2022-12-10T15:51:45;6.90;98.50
28552;DHT22;15752;49.560;8.708;2022-12-10T15:54:24;6.80;98.60
28552;DHT22;15752;49.560;8.708;2022-12-10T15:56:55;6.80;98.50
28552;DHT22;15752;49.560;8.708;2022-12-10T15:59:23;6.80;98.70
28552;DHT22;15752;49.560;8.708;2022-12-10T16:01:52;6.80;98.80
28552;DHT22;15752;49.560;8.708;2022-12-10T16:04:20;6.80;98.80
28552;DHT22;15752;49.560;8.708;2022-12-10T16:06:49;6.80;98.80
28552;DHT22;15752;49.560;8.708;2022-12-10T16:09:18;6.80;98.70
28552;DHT22;15752;49.560;8.708;2022-12-10T16:11:48;6.80;98.70
28552;DHT22;15752;49.560;8.708;2022-12-10T16:14:16;6.70;98.60
28552;DHT22;15752;49.560;8.708;2022-12-10T16:16:45;6.80;98.60
28552;DHT22;15752;49.560;8.708;2022-12-10T16:19:13;6.70;98.60
28552;DHT22;15752;49.560;8.708;2022-12-10T16:21:42;6.80;98.60
28552;DHT22;15752;49.560;8.708;2022-12-10T16:24:12;6.70;98.40
28552;DHT22;15752;49.560;8.708;2022-12-10T16:26:41;6.80;98.40